createdAt,value
2019-03-12T00:00:38.455Z,0.90
2019-03-12T00:05:43.558Z,0.90
2019-03-12T00:10:47.738Z,0.90
2019-03-12T00:15:51.949Z,0.80
2019-03-12T00:20:56.114Z,1.10
2019-03-12T00:26:01.142Z,0.80
2019-03-12T00:31:05.309Z,0.90
2019-03-12T00:36:10.028Z,1.20
2019-03-12T00:41:14.193Z,0.93
2019-03-12T00:46:18.388Z,1.10
2019-03-12T00:51:22.567Z,1.10
2019-03-12T00:56:27.674Z,0.97
2019-03-12T01:01:31.895Z,1.10
2019-03-12T01:06:36.345Z,0.83
2019-03-12T01:11:40.534Z,1.00
2019-03-12T01:16:44.821Z,1.00
2019-03-12T01:21:48.977Z,0.93
2019-03-12T01:26:53.612Z,1.00
2019-03-12T01:31:57.789Z,1.00
2019-03-12T01:37:02.454Z,0.90
2019-03-12T01:42:06.622Z,1.03
2019-03-12T01:47:10.835Z,1.07
2019-03-12T01:52:15.010Z,0.90
2019-03-12T01:57:20.255Z,0.80
2019-03-12T02:02:24.409Z,1.00
2019-03-12T02:07:28.586Z,0.90
2019-03-12T02:12:32.755Z,1.00
2019-03-12T02:17:37.993Z,0.90
2019-03-12T02:22:42.146Z,1.10
2019-03-12T02:27:46.301Z,0.90
2019-03-12T02:32:50.496Z,0.90
2019-03-12T02:37:54.662Z,1.20
2019-03-12T02:42:58.904Z,1.13
2019-03-12T02:48:04.154Z,1.00
2019-03-12T02:53:08.390Z,0.80
2019-03-12T02:58:12.559Z,1.00
2019-03-12T03:03:16.741Z,0.90
2019-03-12T03:08:23.718Z,1.00
2019-03-12T03:13:28.287Z,1.07
2019-03-12T03:18:32.463Z,0.90
2019-03-12T03:23:36.665Z,1.00
2019-03-12T03:28:40.887Z,1.00
2019-03-12T03:33:45.047Z,1.00
2019-03-12T03:38:49.223Z,1.33
2019-03-12T03:43:53.386Z,0.80
2019-03-12T03:48:57.586Z,0.87
2019-03-12T03:54:01.771Z,1.17
2019-03-12T03:59:05.920Z,1.23
2019-03-12T04:04:10.101Z,1.07
2019-03-12T04:09:14.268Z,1.10
2019-03-12T04:14:18.434Z,1.40
2019-03-12T04:19:22.597Z,1.30
2019-03-12T04:24:26.751Z,1.70
2019-03-12T04:29:30.928Z,1.30
2019-03-12T04:34:42.028Z,1.40
2019-03-12T04:39:46.210Z,1.70
2019-03-12T04:44:50.443Z,1.40
2019-03-12T04:49:54.613Z,1.60
2019-03-12T04:54:58.810Z,1.47
2019-03-12T05:00:03.062Z,1.30
2019-03-12T05:05:07.391Z,1.50
2019-03-12T05:10:12.143Z,1.67
2019-03-12T05:15:17.231Z,1.90
2019-03-12T05:20:21.476Z,1.97
2019-03-12T05:25:27.007Z,2.10
2019-03-12T05:30:32.173Z,2.20
2019-03-12T05:35:36.396Z,2.47
2019-03-12T05:40:40.611Z,1.90
2019-03-12T05:45:46.280Z,2.63
2019-03-12T05:50:50.461Z,2.40
2019-03-12T05:55:55.162Z,2.43
2019-03-12T06:00:59.334Z,2.47
2019-03-12T06:06:03.549Z,2.30
2019-03-12T06:11:07.739Z,2.40
2019-03-12T06:16:13.328Z,2.03
2019-03-12T06:21:17.495Z,2.43
2019-03-12T06:26:22.923Z,2.50
2019-03-12T06:31:52.100Z,3.03
2019-03-12T06:37:16.702Z,2.20
2019-03-12T06:42:29.107Z,2.30
2019-03-12T06:47:56.714Z,2.33
2019-03-12T06:53:18.915Z,2.60
2019-03-12T06:58:37.041Z,1.90
2019-03-12T07:03:49.269Z,2.70
2019-03-12T07:09:11.349Z,2.70
2019-03-12T07:14:22.686Z,2.83
2019-03-12T07:20:05.417Z,2.70
2019-03-12T07:25:27.432Z,2.43
2019-03-12T07:30:55.011Z,2.90
2019-03-12T07:36:04.798Z,2.50
2019-03-12T07:41:32.464Z,2.07
2019-03-12T07:46:45.540Z,2.30
2019-03-12T07:51:59.935Z,1.80
2019-03-12T07:57:14.106Z,2.60
2019-03-12T08:02:37.421Z,2.20
2019-03-12T08:08:00.867Z,1.87
2019-03-12T08:13:30.360Z,1.90
2019-03-12T08:19:01.168Z,1.93
2019-03-12T08:24:20.988Z,2.00
2019-03-12T08:29:54.498Z,2.10
2019-03-12T08:35:14.629Z,1.67
2019-03-12T08:40:37.117Z,1.70
2019-03-12T08:46:22.349Z,1.40
2019-03-12T08:51:40.622Z,1.72
2019-03-12T08:56:54.861Z,1.17
2019-03-12T09:02:21.651Z,1.80
2019-03-12T09:07:37.118Z,1.30
2019-03-12T09:12:50.687Z,2.10
2019-03-12T09:18:13.085Z,1.43
2019-03-12T09:23:44.297Z,1.50
2019-03-12T09:28:55.596Z,1.90
2019-03-12T09:34:24.871Z,2.47
2019-03-12T09:39:45.019Z,1.90
2019-03-12T09:45:00.132Z,2.20
2019-03-12T09:50:17.135Z,1.90
2019-03-12T09:55:40.793Z,2.27
2019-03-12T10:01:08.513Z,2.23
2019-03-12T10:06:23.538Z,2.20
2019-03-12T10:11:51.218Z,1.70
2019-03-12T10:17:13.948Z,1.67
2019-03-12T10:22:31.500Z,2.07
2019-03-12T10:27:50.771Z,2.03
2019-03-12T10:33:24.982Z,2.10
2019-03-12T10:39:06.467Z,2.33
2019-03-12T10:44:27.864Z,2.30
2019-03-12T10:49:37.521Z,1.90
2019-03-12T10:54:39.091Z,1.97
2019-03-12T10:59:43.556Z,1.70
2019-03-12T11:04:48.011Z,1.83
2019-03-12T11:09:52.462Z,1.13
2019-03-12T11:14:57.022Z,1.80
2019-03-12T11:20:02.598Z,2.17
2019-03-12T11:25:07.205Z,1.47
2019-03-12T11:30:13.330Z,2.10
2019-03-12T11:35:17.889Z,1.57
2019-03-12T11:40:22.731Z,1.73
2019-03-12T11:45:36.216Z,1.80
2019-03-12T11:50:34.349Z,1.77
2019-03-12T11:55:38.916Z,1.53
2019-03-12T12:01:04.716Z,1.70
2019-03-12T12:06:09.702Z,1.63
2019-03-12T12:11:14.482Z,1.93
2019-03-12T12:16:18.931Z,1.90
2019-03-12T12:21:26.164Z,1.30
2019-03-12T12:26:30.616Z,1.20
2019-03-12T12:31:35.830Z,1.60
2019-03-12T12:36:40.360Z,1.20
2019-03-12T12:41:45.470Z,1.97
2019-03-12T12:46:49.922Z,1.23
2019-03-12T12:51:55.163Z,1.23
2019-03-12T12:57:00.119Z,1.37
2019-03-12T13:02:05.353Z,1.20
2019-03-12T13:07:09.917Z,1.20
2019-03-12T13:12:14.851Z,1.33
2019-03-12T13:17:19.317Z,1.20
2019-03-12T13:22:24.444Z,1.23
2019-03-12T13:27:41.369Z,1.80
2019-03-12T13:32:35.304Z,1.00
2019-03-12T13:37:39.888Z,1.80
2019-03-12T13:42:44.441Z,1.50
2019-03-12T13:47:48.898Z,1.17
2019-03-12T13:52:54.481Z,1.50
2019-03-12T13:57:59.240Z,1.23
2019-03-12T14:03:03.828Z,1.97
2019-03-12T14:08:08.269Z,1.70
2019-03-12T14:13:14.568Z,1.87
2019-03-12T14:18:19.027Z,1.73
2019-03-12T14:23:26.085Z,1.33
2019-03-12T14:28:30.628Z,1.40
2019-03-12T14:33:36.269Z,1.27
2019-03-12T14:38:40.704Z,1.30
2019-03-12T14:43:45.531Z,1.60
2019-03-12T14:48:51.542Z,1.23
2019-03-12T14:53:57.312Z,1.20
2019-03-12T14:59:01.920Z,1.43
2019-03-12T15:04:06.675Z,1.30
2019-03-12T15:09:12.471Z,1.00
2019-03-12T15:14:17.749Z,1.40
2019-03-12T15:19:22.276Z,1.10
2019-03-12T15:24:27.311Z,1.30
2019-03-12T15:29:31.770Z,1.43
2019-03-12T15:34:37.172Z,1.00
2019-03-12T15:39:41.736Z,0.90
2019-03-12T15:44:47.238Z,0.90
2019-03-12T15:49:51.781Z,1.00
2019-03-12T15:54:56.877Z,0.80
2019-03-12T16:00:01.569Z,1.00
2019-03-12T16:05:08.195Z,1.20
2019-03-12T16:10:12.711Z,1.10
2019-03-12T16:15:17.420Z,1.10
2019-03-12T16:20:21.876Z,1.00
2019-03-12T16:25:27.058Z,0.97
2019-03-12T16:30:31.513Z,0.90
2019-03-12T16:35:38.586Z,1.00
2019-03-12T16:40:43.050Z,1.20
2019-03-12T16:45:49.433Z,0.97
2019-03-12T16:50:53.899Z,1.10
2019-03-12T16:55:58.435Z,0.77
2019-03-12T17:01:02.982Z,0.93
2019-03-12T17:06:07.512Z,1.00
2019-03-12T17:11:12.229Z,1.07
2019-03-12T17:16:17.399Z,0.90
2019-03-12T17:21:21.848Z,0.90
2019-03-12T17:26:26.882Z,1.10
2019-03-12T17:31:31.164Z,1.00
2019-03-12T17:36:36.062Z,0.90
2019-03-12T17:41:40.517Z,1.20
2019-03-12T17:46:45.861Z,1.03
2019-03-12T17:51:50.323Z,1.37
2019-03-12T17:56:54.803Z,1.23
2019-03-12T18:01:59.285Z,1.10
2019-03-12T18:07:05.015Z,1.03
2019-03-12T18:12:09.490Z,1.33
2019-03-12T18:17:15.457Z,1.07
2019-03-12T18:22:19.782Z,0.95
2019-03-12T18:27:25.455Z,1.00
2019-03-12T18:32:29.932Z,1.40
2019-03-12T18:37:34.694Z,1.30
2019-03-12T18:42:38.934Z,0.85
2019-03-12T18:47:44.810Z,1.30
2019-03-12T18:52:49.015Z,1.30
2019-03-12T18:57:53.191Z,1.12
2019-03-12T19:02:57.375Z,1.30
2019-03-12T19:08:03.111Z,1.37
2019-03-12T19:13:07.294Z,1.35
2019-03-12T19:18:12.702Z,1.12
2019-03-12T19:23:16.875Z,1.15
2019-03-12T19:28:22.198Z,1.40
2019-03-12T19:33:26.558Z,0.95
2019-03-12T19:38:32.055Z,1.20
2019-03-12T19:43:36.230Z,1.35
2019-03-12T19:48:43.823Z,1.47
2019-03-12T19:53:47.991Z,1.12
2019-03-12T19:58:52.443Z,1.20
2019-03-12T20:03:56.889Z,1.30
2019-03-12T20:09:05.507Z,1.10
2019-03-12T20:14:28.304Z,1.40
2019-03-12T20:19:53.780Z,1.33
2019-03-12T20:25:15.222Z,1.37
2019-03-12T20:30:37.539Z,1.30
2019-03-12T20:35:59.942Z,1.30
2019-03-12T20:41:29.362Z,1.05
2019-03-12T20:46:53.531Z,0.90
2019-03-12T20:52:25.762Z,1.10
2019-03-12T20:57:48.494Z,0.93
2019-03-12T21:03:27.550Z,1.27
2019-03-12T21:08:52.046Z,1.07
2019-03-12T21:14:30.658Z,1.02
2019-03-12T21:19:58.206Z,1.07
2019-03-12T21:25:10.195Z,1.35
2019-03-12T21:30:14.381Z,1.60
2019-03-12T21:35:18.840Z,1.10
2019-03-12T21:40:24.316Z,1.43
2019-03-12T21:45:28.762Z,1.07
2019-03-12T21:50:33.643Z,1.23
2019-03-12T21:55:38.074Z,1.52
2019-03-12T22:00:44.559Z,1.30
2019-03-12T22:05:49.003Z,1.27
2019-03-12T22:10:54.954Z,1.10
2019-03-12T22:15:59.413Z,1.17
2019-03-12T22:21:05.030Z,0.90
2019-03-12T22:26:09.205Z,1.02
2019-03-12T22:31:14.347Z,0.73
2019-03-12T22:36:18.812Z,1.07
2019-03-12T22:41:24.437Z,1.10
2019-03-12T22:46:28.602Z,1.20
2019-03-12T22:51:34.449Z,1.30
2019-03-12T22:56:38.605Z,1.40
2019-03-12T23:01:44.926Z,1.30
2019-03-12T23:06:51.009Z,1.20
2019-03-12T23:11:58.463Z,0.90
2019-03-12T23:17:02.927Z,1.00
2019-03-12T23:22:08.668Z,1.05
2019-03-12T23:27:13.277Z,1.10
2019-03-12T23:32:21.009Z,0.90
2019-03-12T23:37:26.734Z,0.97
2019-03-12T23:42:32.170Z,1.00
2019-03-12T23:47:36.514Z,1.12
2019-03-12T23:52:41.847Z,1.17
2019-03-12T23:57:46.059Z,1.33
